Time;durP1;ratioP1;P1;durP2;ratioP2;P2;SDS_P1;SDS_P2;PMS_P1;PMS_P2;Temp;Humidity;BMP_temperature;BMP_pressure;BME280_temperature;BME280_humidity;BME280_pressure;Samples;Min_cycle;Max_cycle;Signal;HPM_P1;HPM_P2
2023/05/18 00:01:26;;;;;;;7.80;2.25;;;;;;;8.42;87.50;101305.91;5103032;28;20047;-88
2023/05/18 00:03:54;;;;;;;12.55;3.03;;;;;;;8.44;87.60;101312.00;5105312;28;20051;-84
2023/05/18 00:06:36;;;;;;;14.80;3.05;;;;;;;8.34;87.30;101292.03;5106604;28;20098;-84
2023/05/18 00:09:08;;;;;;;11.15;2.80;;;;;;;8.31;88.15;101297.34;5111083;28;20071;-86
2023/05/18 00:11:39;;;;;;;9.63;2.75;;;;;;;8.34;88.85;101313.16;5107976;28;20055;-86
2023/05/18 00:14:07;;;;;;;14.13;3.17;;;;;;;8.30;89.18;101311.44;5103496;28;20164;-85
2023/05/18 00:16:39;;;;;;;9.38;3.33;;;;;;;8.25;89.44;101308.03;5102984;28;20047;-85
2023/05/18 00:19:06;;;;;;;8.63;3.17;;;;;;;8.04;89.39;101272.44;5101235;28;20044;-84
2023/05/18 00:21:34;;;;;;;7.03;2.47;;;;;;;8.12;90.37;101299.53;5101236;28;20101;-85
2023/05/18 00:24:00;;;;;;;8.52;2.70;;;;;;;7.94;90.88;101271.78;5099594;28;20064;-85
2023/05/18 00:26:27;;;;;;;11.23;3.05;;;;;;;8.08;91.74;101295.22;5099980;28;20044;-86
2023/05/18 00:28:54;;;;;;;10.73;2.65;;;;;;;7.91;91.55;101263.94;5100373;28;20048;-86
2023/05/18 00:31:21;;;;;;;11.55;2.90;;;;;;;7.88;93.09;101263.13;5100755;28;20073;-86
2023/05/18 00:33:49;;;;;;;9.88;2.83;;;;;;;7.96;93.98;101283.19;5100295;28;20499;-86
2023/05/18 00:36:16;;;;;;;5.97;2.65;;;;;;;8.10;91.68;101298.69;5099893;28;20131;-86
2023/05/18 00:38:43;;;;;;;11.88;2.85;;;;;;;7.94;93.22;101276.19;5101802;28;20107;-86
2023/05/18 00:41:10;;;;;;;9.35;2.60;;;;;;;7.93;93.14;101277.97;5101760;28;20376;-85
2023/05/18 00:43:40;;;;;;;8.02;2.47;;;;;;;7.99;92.25;101288.38;5100986;28;20082;-85
2023/05/18 00:46:07;;;;;;;10.43;2.65;;;;;;;7.99;92.24;101291.03;5098940;28;20116;-85
2023/05/18 00:48:33;;;;;;;10.82;2.80;;;;;;;7.81;92.10;101251.88;5100644;28;20067;-86
2023/05/18 00:51:00;;;;;;;8.20;2.70;;;;;;;7.69;92.68;101246.88;5108207;28;20051;-85
2023/05/18 00:53:28;;;;;;;7.68;2.47;;;;;;;7.88;92.78;101278.94;5115189;28;20143;-85
2023/05/18 00:55:56;;;;;;;8.80;2.55;;;;;;;7.82;94.71;101273.84;5103260;28;20130;-88
2023/05/18 00:58:25;;;;;;;9.88;2.70;;;;;;;7.91;94.44;101302.63;5099750;28;20051;-87
2023/05/18 01:00:54;;;;;;;9.95;2.53;;;;;;;7.87;93.49;101291.25;5101540;28;20040;-86
2023/05/18 01:03:21;;;;;;;7.88;2.50;;;;;;;7.77;93.87;101279.19;5100245;28;20055;-87
2023/05/18 01:05:54;;;;;;;6.13;2.50;;;;;;;7.87;92.81;101293.91;5098056;28;20139;-85
2023/05/18 01:08:23;;;;;;;10.18;2.80;;;;;;;7.67;93.30;101261.84;5098777;28;20047;-85
2023/05/18 01:11:13;;;;;;;11.63;2.67;;;;;;;7.89;93.11;101292.09;5098530;28;20060;-85
2023/05/18 01:13:57;;;;;;;10.20;2.90;;;;;;;7.86;93.23;101299.25;5099243;28;20455;-86
2023/05/18 01:16:36;;;;;;;9.77;2.72;;;;;;;7.69;92.70;101274.09;5100402;28;20509;-85
2023/05/18 01:19:30;;;;;;;13.85;3.00;;;;;;;7.62;93.25;101274.25;5098462;28;20139;-85
2023/05/18 01:22:28;;;;;;;7.50;2.30;;;;;;;7.55;93.98;101262.09;5086528;28;20052;-86
2023/05/18 01:25:17;;;;;;;11.50;2.60;;;;;;;7.57;94.58;101276.97;5099607;28;20052;-85
2023/05/18 01:27:51;;;;;;;14.18;2.80;;;;;;;7.58;94.67;101283.09;5103430;28;20559;-85
2023/05/18 01:30:18;;;;;;;8.45;2.80;;;;;;;7.55;95.99;101293.75;5104129;28;20438;-85
2023/05/18 01:32:46;;;;;;;9.00;3.03;;;;;;;7.36;95.77;101262.47;5107681;28;20117;-84
2023/05/18 01:35:13;;;;;;;8.65;2.97;;;;;;;7.27;96.04;101249.47;5104114;28;20055;-86
2023/05/18 01:37:54;;;;;;;8.02;2.60;;;;;;;7.57;96.36;101294.53;5103815;28;20052;-84
2023/05/18 01:40:22;;;;;;;10.00;2.75;;;;;;;7.39;96.87;101278.25;5102967;28;20036;-86
2023/05/18 01:42:55;;;;;;;8.60;2.95;;;;;;;7.43;97.36;101286.06;5106399;28;20164;-86
2023/05/18 01:45:28;;;;;;;10.15;2.47;;;;;;;7.43;97.52;101293.97;5104442;28;20044;-84
2023/05/18 01:47:58;;;;;;;8.05;2.92;;;;;;;7.34;98.21;101282.72;5105862;28;20105;-85
2023/05/18 01:50:37;;;;;;;8.20;3.00;;;;;;;7.40;98.37;101295.75;5103694;28;20472;-85
2023/05/18 01:53:42;;;;;;;10.40;3.25;;;;;;;7.30;98.11;101280.16;5101733;28;20082;-86
2023/05/18 01:56:13;;;;;;;15.13;2.72;;;;;;;7.34;98.63;101297.66;5096084;28;20461;-86
2023/05/18 01:58:40;;;;;;;7.50;2.58;;;;;;;7.16;99.25;101275.16;5098912;28;20036;-86
2023/05/18 02:01:13;;;;;;;12.45;3.42;;;;;;;7.26;99.04;101297.78;5100307;28;20054;-86
2023/05/18 02:03:47;;;;;;;6.95;2.63;;;;;;;7.25;98.83;101295.19;5100121;28;20109;-86
2023/05/18 02:06:14;;;;;;;10.20;3.10;;;;;;;7.22;99.96;101292.63;5098950;28;20119;-86
2023/05/18 02:08:42;;;;;;;8.63;2.90;;;;;;;7.13;99.95;101285.75;5099521;28;20052;-85
2023/05/18 02:11:10;;;;;;;6.47;3.20;;;;;;;7.11;100.00;101287.53;5082122;28;20492;-86
2023/05/18 02:13:37;;;;;;;10.10;3.22;;;;;;;7.01;100.00;101270.19;5099167;28;20054;-86
2023/05/18 02:16:06;;;;;;;10.48;2.95;;;;;;;7.18;100.00;101298.84;5099332;28;20048;-86
2023/05/18 02:18:35;;;;;;;11.18;3.42;;;;;;;7.03;100.00;101260.50;5099563;28;20086;-87
2023/05/18 02:21:05;;;;;;;9.68;3.15;;;;;;;7.21;100.00;101289.13;5100325;28;20050;-86
2023/05/18 02:23:32;;;;;;;9.52;3.13;;;;;;;7.17;100.00;101292.72;5099662;28;20103;-86
2023/05/18 02:26:02;;;;;;;6.35;2.80;;;;;;;7.08;100.00;101279.72;5100526;28;20044;-86
2023/05/18 02:28:29;;;;;;;6.43;2.80;;;;;;;7.13;100.00;101290.16;5099710;28;20055;-85
2023/05/18 02:31:04;;;;;;;9.18;3.20;;;;;;;7.09;100.00;101288.47;5100581;28;20131;-86
2023/05/18 02:33:38;;;;;;;9.43;3.13;;;;;;;7.03;100.00;101278.94;5082437;28;20040;-86
2023/05/18 02:36:11;;;;;;;11.50;3.17;;;;;;;6.95;100.00;101271.16;5098324;28;20109;-86
2023/05/18 02:38:42;;;;;;;9.25;2.85;;;;;;;6.93;100.00;101279.97;5100030;28;20097;-86
2023/05/18 02:41:10;;;;;;;7.50;2.95;;;;;;;7.01;100.00;101285.97;5098521;28;20054;-86
2023/05/18 02:43:36;;;;;;;7.82;2.80;;;;;;;7.01;100.00;101289.47;5082567;28;20044;-86
2023/05/18 02:46:03;;;;;;;8.98;2.63;;;;;;;6.92;100.00;101283.53;5098140;28;20111;-87
2023/05/18 02:48:33;;;;;;;8.93;3.15;;;;;;;6.73;100.00;101259.28;5100331;28;20051;-86
2023/05/18 02:50:59;;;;;;;8.10;2.90;;;;;;;6.71;100.00;101257.56;5112858;28;20047;-85
2023/05/18 02:53:26;;;;;;;11.75;3.20;;;;;;;6.66;100.00;101263.78;5088734;28;20075;-86
2023/05/18 02:55:55;;;;;;;7.20;3.10;;;;;;;6.77;100.00;101294.31;5084656;28;20131;-86
2023/05/18 02:58:24;;;;;;;8.38;3.20;;;;;;;6.68;100.00;101269.88;5098283;28;20098;-86
2023/05/18 03:00:53;;;;;;;9.75;3.10;;;;;;;6.75;100.00;101288.22;5100226;28;20044;-87
2023/05/18 03:03:28;;;;;;;10.32;3.13;;;;;;;6.75;100.00;101286.44;5084443;28;20070;-87
2023/05/18 03:05:55;;;;;;;10.30;3.28;;;;;;;6.78;100.00;101293.41;5101060;28;20065;-86
2023/05/18 03:08:22;;;;;;;10.73;3.08;;;;;;;6.73;100.00;101290.88;5100046;28;20044;-86
2023/05/18 03:10:49;;;;;;;10.95;3.40;;;;;;;6.66;100.00;101279.56;5100283;28;20522;-85
2023/05/18 03:13:18;;;;;;;6.95;3.28;;;;;;;6.69;100.00;101291.81;5102298;28;20048;-86
2023/05/18 03:15:48;;;;;;;8.02;2.95;;;;;;;6.45;100.00;101253.63;5101558;28;20048;-85
2023/05/18 03:18:18;;;;;;;;;;;;;;;6.70;100.00;101301.44;5102494;28;20048;-86
2023/05/18 03:20:45;;;;;;;12.00;3.20;;;;;;;6.66;100.00;101300.63;5103469;28;19938;-87
2023/05/18 03:23:12;;;;;;;12.80;3.13;;;;;;;6.62;100.00;101304.19;5105011;28;20044;-84
2023/05/18 03:25:42;;;;;;;6.65;2.97;;;;;;;6.51;100.00;101274.56;5088032;28;20046;-85
2023/05/18 03:28:17;;;;;;;8.35;3.10;;;;;;;6.46;100.00;101275.50;5103996;28;20059;-86
2023/05/18 03:30:44;;;;;;;6.82;2.88;;;;;;;6.47;100.00;101283.38;5086862;28;20040;-86
2023/05/18 03:33:13;;;;;;;6.50;2.83;;;;;;;6.54;100.00;101289.44;5099399;28;20466;-86
2023/05/18 03:35:40;;;;;;;6.75;2.95;;;;;;;6.43;100.00;101265.94;5084564;28;20134;-86
2023/05/18 03:38:07;;;;;;;10.30;2.97;;;;;;;6.44;100.00;101274.69;5102930;28;20047;-87
2023/05/18 03:40:33;;;;;;;8.85;3.58;;;;;;;6.54;100.00;101300.81;5102094;28;20044;-86
2023/05/18 03:43:00;;;;;;;10.32;3.47;;;;;;;6.51;100.00;101300.00;5101546;28;20043;-85
2023/05/18 03:45:35;;;;;;;10.15;3.47;;;;;;;6.43;100.00;101294.88;5100997;28;20048;-85
2023/05/18 03:48:04;;;;;;;5.28;2.55;;;;;;;6.47;100.00;101299.16;5101132;28;20048;-86
2023/05/18 03:50:35;;;;;;;9.27;3.30;;;;;;;6.48;100.00;101293.00;5100972;28;20039;-85
2023/05/18 03:53:02;;;;;;;8.68;3.38;;;;;;;6.44;100.00;101288.72;5102190;28;20070;-86
2023/05/18 03:55:29;;;;;;;8.52;3.13;;;;;;;6.61;100.00;101306.88;5100973;28;20122;-86
2023/05/18 03:57:58;;;;;;;8.18;3.03;;;;;;;6.53;100.00;101285.94;5103181;28;20093;-86
2023/05/18 04:00:31;;;;;;;9.80;3.13;;;;;;;6.61;100.00;101305.06;5102241;28;20044;-87
2023/05/18 04:02:59;;;;;;;8.55;3.30;;;;;;;6.52;100.00;101302.59;5105881;28;20142;-88
2023/05/18 04:05:31;;;;;;;6.45;3.15;;;;;;;6.56;100.00;101314.84;5108773;28;20063;-87
2023/05/18 04:08:02;;;;;;;8.88;3.42;;;;;;;6.48;100.00;101307.94;5088550;28;20048;-86
2023/05/18 04:10:30;;;;;;;11.82;3.53;;;;;;;6.50;100.00;101314.91;5102966;28;20047;-85
2023/05/18 04:12:58;;;;;;;8.30;2.90;;;;;;;6.45;100.00;101311.50;5104923;28;20048;-86
2023/05/18 04:15:25;;;;;;;10.20;3.90;;;;;;;6.35;100.00;101283.59;5103334;28;20047;-86
2023/05/18 04:17:52;;;;;;;9.55;3.15;;;;;;;6.25;100.00;101263.59;5104561;28;20036;-85
2023/05/18 04:20:20;;;;;;;8.45;3.20;;;;;;;6.56;100.00;101313.97;5102746;28;20036;-87
2023/05/18 04:22:49;;;;;;;6.28;2.90;;;;;;;6.51;100.00;101300.88;5103521;28;20047;-87
2023/05/18 04:25:20;;;;;;;9.70;3.33;;;;;;;6.55;100.00;101320.13;5102460;28;20043;-87
2023/05/18 04:27:49;;;;;;;8.43;3.38;;;;;;;6.55;100.00;101321.00;5101977;28;20040;-86
2023/05/18 04:30:36;;;;;;;5.43;2.63;;;;;;;6.62;100.00;101325.25;5106584;28;20040;-88
2023/05/18 04:33:05;;;;;;;9.48;3.30;;;;;;;6.64;100.00;101326.09;5104916;28;20052;-88
2023/05/18 04:35:35;;;;;;;11.00;3.40;;;;;;;6.68;100.00;101326.91;5104636;28;20052;-88
2023/05/18 04:38:04;;;;;;;13.18;3.08;;;;;;;6.66;100.00;101313.78;5103425;28;20045;-88
2023/05/18 04:40:32;;;;;;;8.35;2.75;;;;;;;6.73;100.00;101324.22;5101997;28;20036;-87
2023/05/18 04:43:00;;;;;;;9.48;2.95;;;;;;;6.71;100.00;101321.59;5101850;28;20488;-87
2023/05/18 04:45:26;;;;;;;8.63;3.50;;;;;;;6.79;100.00;101332.00;5102504;28;20048;-85
2023/05/18 04:47:54;;;;;;;6.20;2.78;;;;;;;6.61;100.00;101296.34;5106250;28;20107;-85
2023/05/18 04:50:28;;;;;;;6.90;2.90;;;;;;;6.85;100.00;101332.78;5114487;28;20040;-87
2023/05/18 04:52:56;;;;;;;7.28;3.33;;;;;;;6.89;100.00;101333.59;5105817;28;20481;-87
2023/05/18 04:55:26;;;;;;;9.82;3.55;;;;;;;6.97;100.00;101339.59;5108495;28;20044;-87
2023/05/18 04:58:04;;;;;;;8.63;2.70;;;;;;;6.96;100.00;101335.22;5104906;28;20052;-86
2023/05/18 05:00:37;;;;;;;10.27;3.42;;;;;;;6.84;100.00;101306.47;5107967;28;20032;-87
2023/05/18 05:03:05;;;;;;;12.02;3.50;;;;;;;6.94;100.00;101324.72;5104063;28;20044;-87
2023/05/18 05:05:33;;;;;;;10.00;2.85;;;;;;;7.06;100.00;101330.69;5107007;28;20036;-87
2023/05/18 05:08:03;;;;;;;10.90;3.20;;;;;;;7.08;100.00;101335.03;5106588;28;20050;-86
2023/05/18 05:10:30;;;;;;;9.68;3.15;;;;;;;6.91;100.00;101293.19;5105753;28;20040;-88
2023/05/18 05:13:08;;;;;;;10.07;3.10;;;;;;;7.15;100.00;101322.59;5092406;28;20048;-86
2023/05/18 05:15:38;;;;;;;8.57;3.25;;;;;;;7.02;100.00;101296.50;5111986;28;20078;-86
2023/05/18 05:18:05;;;;;;;9.57;3.53;;;;;;;7.34;100.00;101327.50;5114241;28;20050;-85
2023/05/18 05:20:32;;;;;;;11.77;3.55;;;;;;;7.45;100.00;101329.94;5115702;28;20070;-85
2023/05/18 05:22:59;;;;;;;6.68;2.78;;;;;;;7.42;100.00;101314.16;5116093;28;20035;-86
2023/05/18 05:25:27;;;;;;;8.05;3.67;;;;;;;7.56;100.00;101334.97;5113813;28;20119;-86
2023/05/18 05:27:54;;;;;;;7.68;3.80;;;;;;;7.67;100.00;101335.66;5110723;28;20074;-87
2023/05/18 05:30:21;;;;;;;13.02;3.42;;;;;;;7.72;100.00;101336.41;5106905;28;20082;-87
2023/05/18 05:32:48;;;;;;;6.75;2.85;;;;;;;7.74;100.00;101337.25;5101246;28;20510;-87
2023/05/18 05:35:17;;;;;;;6.93;3.00;;;;;;;7.82;100.00;101334.47;5085221;28;20072;-86
2023/05/18 05:37:44;;;;;;;12.43;4.00;;;;;;;7.74;100.00;101322.31;5101905;28;20036;-86
2023/05/18 05:40:12;;;;;;;8.52;3.35;;;;;;;7.83;100.00;101323.91;5107245;28;20044;-86
2023/05/18 05:42:40;;;;;;;6.75;3.05;;;;;;;7.84;100.00;101312.47;5106434;28;20043;-88
2023/05/18 05:45:07;;;;;;;8.18;3.00;;;;;;;8.05;100.00;101348.91;5105558;28;20044;-87
2023/05/18 05:47:40;;;;;;;7.43;2.67;;;;;;;8.14;100.00;101339.94;5106024;28;20051;-86
2023/05/18 05:50:26;;;;;;;7.78;3.85;;;;;;;8.02;98.38;101305.91;5108500;28;20048;-85
2023/05/18 05:52:53;;;;;;;7.70;3.13;;;;;;;8.28;97.34;101345.78;5106493;28;20123;-86
2023/05/18 05:55:21;;;;;;;9.98;2.78;;;;;;;8.27;96.49;101329.97;5101732;28;20046;-86
2023/05/18 05:57:48;;;;;;;11.68;2.90;;;;;;;8.47;97.58;101345.41;5098774;28;20101;-86
2023/05/18 06:00:16;;;;;;;8.45;2.80;;;;;;;8.57;95.36;101342.50;5083715;28;20036;-86
2023/05/18 06:02:43;;;;;;;10.20;3.03;;;;;;;8.59;93.40;101323.97;5101105;28;20048;-86
2023/05/18 06:05:11;;;;;;;7.20;2.97;;;;;;;8.81;91.82;101343.69;5100648;28;20052;-86
2023/05/18 06:07:43;;;;;;;8.10;2.50;;;;;;;9.02;90.23;101340.50;5100729;28;20052;-86
2023/05/18 06:10:11;;;;;;;10.53;2.70;;;;;;;9.06;89.86;101307.81;5101873;28;20047;-87
2023/05/18 06:12:43;;;;;;;11.10;2.83;;;;;;;9.53;88.05;101336.50;5100957;28;20470;-87
2023/05/18 06:15:24;;;;;;;12.50;3.00;;;;;;;9.77;83.50;101331.38;5101026;28;20043;-87
2023/05/18 06:17:51;;;;;;;11.00;2.80;;;;;;;9.96;82.61;101331.72;5100089;28;20528;-86
2023/05/18 06:20:18;;;;;;;8.38;2.28;;;;;;;10.22;80.55;101322.19;5099113;28;20043;-86
2023/05/18 06:22:48;;;;;;;6.57;2.47;;;;;;;10.83;78.42;101352.88;5104738;28;20044;-87
2023/05/18 06:25:16;;;;;;;8.10;2.45;;;;;;;11.18;70.95;101354.31;5085872;28;20064;-87
2023/05/18 06:27:44;;;;;;;8.37;2.70;;;;;;;11.44;69.91;101335.75;5102320;28;20044;-87
2023/05/18 06:30:11;;;;;;;5.82;2.03;;;;;;;11.76;65.71;101339.06;5102158;28;20048;-87
2023/05/18 06:32:43;;;;;;;8.63;2.60;;;;;;;12.06;66.09;101352.97;5116234;28;20048;-87
2023/05/18 06:35:11;;;;;;;7.13;2.35;;;;;;;12.32;61.92;101354.59;5090041;28;20126;-87
2023/05/18 06:37:43;;;;;;;8.25;2.35;;;;;;;12.29;64.31;101342.31;5106174;28;20039;-87
2023/05/18 06:40:14;;;;;;;9.50;2.67;;;;;;;12.47;60.62;101348.69;5125665;28;20032;-86
2023/05/18 06:42:55;;;;;;;7.25;2.47;;;;;;;12.62;62.36;101353.41;5095841;28;20036;-87
2023/05/18 06:45:46;;;;;;;7.85;2.47;;;;;;;12.95;61.09;101349.34;5115113;28;20058;-86
2023/05/18 06:48:38;;;;;;;10.38;2.67;;;;;;;13.19;57.79;101351.97;5123568;28;20130;-87
2023/05/18 06:51:09;;;;;;;5.40;2.40;;;;;;;13.19;58.84;101341.34;5115102;28;20111;-87
2023/05/18 06:53:51;;;;;;;6.65;2.50;;;;;;;13.59;59.20;101351.09;5110896;28;20077;-87
2023/05/18 06:56:21;;;;;;;5.63;2.17;;;;;;;13.53;56.96;101341.59;5108506;28;20492;-87
2023/05/18 06:58:50;;;;;;;6.57;2.88;;;;;;;13.67;58.48;101360.47;5107484;28;20049;-88
2023/05/18 07:01:32;;;;;;;6.47;1.95;;;;;;;13.61;55.73;101365.19;5124074;28;20044;-87
2023/05/18 07:03:59;;;;;;;7.50;2.50;;;;;;;13.47;58.08;101363.16;5124041;28;20036;-86
2023/05/18 07:06:26;;;;;;;6.68;2.88;;;;;;;13.46;56.52;101355.22;5105812;28;20048;-85
2023/05/18 07:09:07;;;;;;;7.82;2.47;;;;;;;13.49;56.48;101358.63;5108017;28;20040;-86
2023/05/18 07:11:40;;;;;;;9.40;2.58;;;;;;;13.54;56.08;101353.94;5108878;28;20478;-85
2023/05/18 07:14:08;;;;;;;11.43;3.00;;;;;;;13.67;58.58;101356.94;5093432;28;20173;-85
2023/05/18 07:16:39;;;;;;;7.10;2.80;;;;;;;14.03;57.31;101365.91;5109341;28;20039;-85
2023/05/18 07:19:06;;;;;;;6.20;2.58;;;;;;;14.41;54.18;101363.31;5107531;28;20494;-85
2023/05/18 07:21:41;;;;;;;6.40;2.47;;;;;;;14.25;52.77;101338.28;5107929;28;20135;-86
2023/05/18 07:24:10;;;;;;;8.15;2.28;;;;;;;14.44;53.81;101360.50;5108254;28;20044;-85
2023/05/18 07:26:58;;;;;;;8.48;2.20;;;;;;;14.39;53.63;101334.03;5130833;28;20526;-84
2023/05/18 07:29:45;;;;;;;6.00;2.33;;;;;;;14.84;54.71;101347.91;5119020;28;20036;-84
2023/05/18 07:36:26;;;;;;;8.35;2.58;;;;;;;14.95;50.79;101349.06;5134150;28;20042;-84
2023/05/18 07:39:16;;;;;;;7.35;2.60;;;;;;;15.05;50.44;101333.50;5130702;28;20047;-85
2023/05/18 07:41:49;;;;;;;7.43;2.15;;;;;;;14.80;49.18;101331.19;5132972;28;20099;-85
2023/05/18 07:44:35;;;;;;;5.93;2.40;;;;;;;14.55;50.54;101325.34;5109062;28;20040;-84
2023/05/18 07:47:18;;;;;;;8.95;2.30;;;;;;;14.47;52.27;101351.50;5114750;28;20135;-83
2023/05/18 07:50:31;;;;;;;5.15;2.45;;;;;;;14.77;51.15;101352.69;5131055;28;20437;-86
2023/05/18 07:53:31;;;;;;;6.80;2.38;;;;;;;14.48;52.20;101347.91;5137141;28;20074;-84
2023/05/18 07:56:08;;;;;;;8.50;2.40;;;;;;;14.73;52.08;101343.09;5120139;28;20107;-85
2023/05/18 07:58:49;;;;;;;7.32;2.70;;;;;;;14.93;50.36;101331.47;5070762;28;20048;-84
2023/05/18 08:01:31;;;;;;;9.80;2.40;;;;;;;15.51;49.21;101334.66;5122336;28;20069;-84
2023/05/18 08:04:11;;;;;;;11.23;2.45;;;;;;;15.68;47.89;101323.97;5118407;28;20126;-84
2023/05/18 08:06:58;;;;;;;6.78;2.35;;;;;;;15.52;48.19;101316.84;5103885;28;20054;-85
2023/05/18 08:09:40;;;;;;;6.63;2.28;;;;;;;15.43;48.23;101291.47;5113006;28;20379;-85
2023/05/18 08:12:10;;;;;;;6.15;2.05;;;;;;;15.38;48.96;101347.78;5096677;28;20504;-85
2023/05/18 08:14:42;;;;;;;7.38;2.58;;;;;;;15.22;49.22;101332.63;5134531;28;20074;-84
2023/05/18 08:17:25;;;;;;;6.30;2.40;;;;;;;15.33;49.43;101339.13;5122076;28;20066;-86
2023/05/18 08:19:53;;;;;;;6.95;2.67;;;;;;;15.54;51.30;101329.16;5101734;28;20091;-82
2023/05/18 08:22:41;;;;;;;6.63;1.95;;;;;;;15.96;48.12;101343.84;5113403;28;20044;-84
2023/05/18 08:25:22;;;;;;;6.35;2.30;;;;;;;15.91;49.27;101319.19;5107802;28;20056;-86
2023/05/18 08:27:49;;;;;;;7.05;2.47;;;;;;;16.01;48.61;101315.09;5109334;28;20039;-85
2023/05/18 08:30:24;;;;;;;7.65;2.17;;;;;;;16.11;49.11;101317.16;5107818;28;20072;-85
2023/05/18 08:33:03;;;;;;;6.75;2.08;;;;;;;16.15;48.10;101325.88;5109601;28;20063;-84
2023/05/18 08:36:29;;;;;;;6.10;2.05;;;;;;;16.39;49.07;101320.97;5097693;28;20040;-85
2023/05/18 08:39:35;;;;;;;8.05;2.05;;;;;;;16.36;47.67;101315.81;5047208;28;20076;-85
2023/05/18 08:42:28;;;;;;;7.03;2.60;;;;;;;16.27;47.60;101311.81;5028750;28;20101;-85
2023/05/18 08:45:25;;;;;;;7.72;1.98;;;;;;;16.63;47.76;101316.06;5036137;28;20068;-84
2023/05/18 08:47:59;;;;;;;6.22;2.13;;;;;;;16.59;46.06;101288.59;5041858;28;20033;-86
2023/05/18 08:50:41;;;;;;;6.65;2.00;;;;;;;16.89;45.54;101306.53;5032881;28;20051;-84
2023/05/18 08:53:38;;;;;;;7.50;2.15;;;;;;;16.97;46.40;101282.88;5028775;28;20049;-85
2023/05/18 08:56:15;;;;;;;10.15;2.05;;;;;;;16.66;45.71;101292.69;5022904;28;20049;-85
2023/05/18 08:59:13;;;;;;;5.05;1.95;;;;;;;16.72;46.50;101304.84;5006786;28;20043;-86
2023/05/18 09:01:42;;;;;;;6.05;1.85;;;;;;;17.07;45.49;101290.25;5024776;28;20397;-86
2023/05/18 09:04:13;;;;;;;8.95;2.17;;;;;;;17.16;44.02;101246.00;5024533;28;20084;-86
2023/05/18 09:06:48;;;;;;;8.73;2.05;;;;;;;17.21;44.97;101261.78;5025768;28;20045;-86
2023/05/18 09:09:33;;;;;;;8.80;2.00;;;;;;;16.82;44.30;101260.56;5053412;28;20540;-85
2023/05/18 09:12:13;;;;;;;7.63;1.80;;;;;;;16.37;45.76;101286.28;5107683;28;20083;-85
2023/05/18 09:14:54;;;;;;;7.72;1.98;;;;;;;16.04;47.09;101282.88;5107832;28;20043;-85
2023/05/18 09:17:23;;;;;;;9.07;2.00;;;;;;;15.98;47.33;101270.69;5105568;28;20040;-86
2023/05/18 09:19:54;;;;;;;9.38;2.15;;;;;;;15.85;47.12;101275.00;5089304;28;20054;-85
2023/05/18 09:22:40;;;;;;;7.35;2.33;;;;;;;15.79;46.55;101286.88;5090272;28;20044;-84
2023/05/18 09:25:19;;;;;;;7.50;2.08;;;;;;;15.78;45.83;101279.81;5106828;28;20492;-86
2023/05/18 09:27:51;;;;;;;7.97;1.92;;;;;;;15.81;45.84;101293.94;5107073;28;20156;-86
2023/05/18 09:30:42;;;;;;;8.27;2.13;;;;;;;15.76;46.45;101268.34;5092265;28;20058;-85
2023/05/18 09:33:22;;;;;;;8.40;2.08;;;;;;;15.90;45.50;101285.44;5124015;28;20079;-87
2023/05/18 09:36:33;;;;;;;8.40;2.22;;;;;;;15.85;45.42;101276.81;5092858;28;20046;-86
2023/05/18 09:39:11;;;;;;;7.32;2.17;;;;;;;15.79;45.27;101280.66;5124812;28;20054;-84
2023/05/18 09:41:41;;;;;;;8.27;2.03;;;;;;;15.78;45.36;101290.47;5107810;28;20044;-85
2023/05/18 09:44:11;;;;;;;6.57;2.25;;;;;;;15.69;45.59;101276.78;5107397;28;20081;-85
2023/05/18 09:46:39;;;;;;;6.88;2.05;;;;;;;15.67;46.27;101266.19;5091920;28;20047;-85
2023/05/18 09:49:08;;;;;;;6.25;2.10;;;;;;;15.75;46.68;101265.75;5091493;28;20046;-86
2023/05/18 09:51:36;;;;;;;7.85;1.70;;;;;;;15.53;46.31;101258.03;5111701;28;20047;-87
2023/05/18 09:54:07;;;;;;;8.55;2.05;;;;;;;15.62;45.75;101273.56;5108049;28;20044;-85
2023/05/18 09:56:38;;;;;;;9.57;1.90;;;;;;;15.72;46.39;101264.13;5106253;28;20052;-86
2023/05/18 09:59:16;;;;;;;7.72;2.03;;;;;;;15.70;46.31;101268.69;5087151;28;20043;-85
2023/05/18 10:02:10;;;;;;;5.43;1.90;;;;;;;15.55;46.23;101264.19;5093493;28;20039;-85
2023/05/18 10:04:41;;;;;;;7.10;2.03;;;;;;;15.69;46.52;101266.97;5107932;28;20044;-86
2023/05/18 10:07:16;;;;;;;7.10;1.90;;;;;;;15.59;46.91;101220.34;5107549;28;20069;-86
2023/05/18 10:10:02;;;;;;;6.85;2.33;;;;;;;16.18;46.30;101258.03;5087042;28;20043;-85
2023/05/18 10:12:39;;;;;;;7.03;1.92;;;;;;;16.11;46.45;101261.06;5123596;28;20043;-86
2023/05/18 10:15:22;;;;;;;8.63;1.98;;;;;;;16.06;44.90;101262.25;5119517;28;20121;-87
2023/05/18 10:18:06;;;;;;;7.22;2.20;;;;;;;15.85;44.84;101240.28;5075425;28;20047;-86
2023/05/18 10:20:37;;;;;;;8.68;1.98;;;;;;;15.65;45.87;101201.31;5124231;28;20039;-86
2023/05/18 10:23:14;;;;;;;9.88;2.28;;;;;;;15.77;45.84;101219.31;5122966;28;20035;-87
2023/05/18 10:26:06;;;;;;;9.18;2.20;;;;;;;15.97;46.18;101220.03;5109583;28;20061;-87
2023/05/18 10:28:46;;;;;;;5.35;2.13;;;;;;;16.32;44.52;101240.28;5089369;28;20103;-86
2023/05/18 10:31:39;;;;;;;6.18;1.88;;;;;;;16.61;40.82;101227.03;5119245;28;20051;-86
2023/05/18 10:34:10;;;;;;;4.85;1.95;;;;;;;16.53;39.12;101213.25;5108222;28;20057;-87
2023/05/18 10:37:04;;;;;;;8.57;2.60;;;;;;;16.64;40.97;101209.03;5104004;28;20044;-86
2023/05/18 10:39:50;;;;;;;6.50;1.80;;;;;;;16.91;41.45;101230.56;5128556;28;20077;-86
2023/05/18 10:42:19;;;;;;;6.97;1.90;;;;;;;16.90;41.55;101226.19;5113423;28;20035;-87
2023/05/18 10:45:28;;;;;;;4.68;2.30;;;;;;;17.02;42.84;101220.06;5093197;28;20042;-85
2023/05/18 10:48:15;;;;;;;7.00;1.98;;;;;;;17.44;42.37;101215.75;5132724;28;20051;-87
2023/05/18 10:50:57;;;;;;;7.40;1.90;;;;;;;17.59;42.13;101203.19;5111307;28;20141;-88
2023/05/18 10:53:48;;;;;;;7.00;2.00;;;;;;;17.70;42.89;101179.28;5129697;28;20066;-85
2023/05/18 10:56:36;;;;;;;6.53;2.00;;;;;;;17.68;40.95;101205.31;5113056;28;20046;-87
2023/05/18 10:59:23;;;;;;;7.27;2.20;;;;;;;17.44;40.48;101218.41;5112453;28;20054;-85
2023/05/18 11:02:08;;;;;;;9.35;2.42;;;;;;;16.95;39.00;101172.41;5130363;28;20052;-86
2023/05/18 11:04:58;;;;;;;7.82;2.70;;;;;;;17.03;40.11;101204.88;5132779;28;20044;-87
2023/05/18 11:09:05;;;;;;;7.68;2.08;;;;;;;17.00;39.45;101221.97;5137763;28;20110;-87
2023/05/18 11:16:34;;;;;;;5.90;2.10;;;;;;;16.98;38.73;101194.50;5066865;28;20052;-86
2023/05/18 11:19:25;;;;;;;10.32;2.30;;;;;;;17.01;38.14;101218.34;4981452;28;20077;-87
2023/05/18 11:21:54;;;;;;;8.65;2.35;;;;;;;17.11;38.65;101219.53;5047611;28;20049;-86
2023/05/18 11:24:40;;;;;;;5.25;1.90;;;;;;;17.25;38.44;101209.78;5047263;28;20051;-86
2023/05/18 11:27:20;;;;;;;5.43;2.10;;;;;;;17.40;38.65;101199.00;5048980;28;20132;-87
2023/05/18 11:30:28;;;;;;;6.47;1.80;;;;;;;17.73;38.12;101189.81;5063774;28;20079;-86
2023/05/18 11:33:35;;;;;;;7.22;2.00;;;;;;;17.85;37.59;101171.13;4442199;27;18733350;-86
2023/05/18 11:36:26;;;;;;;6.32;2.08;;;;;;;18.06;36.32;101178.72;5119746;28;20052;-86
2023/05/18 11:39:25;;;;;;;8.82;2.22;;;;;;;18.08;36.30;101176.81;5103331;28;20051;-87
2023/05/18 11:46:05;;;;;;;6.60;2.00;;;;;;;18.05;36.31;101182.38;5107335;28;20104;-86
2023/05/18 11:48:43;;;;;;;7.60;2.03;;;;;;;17.96;36.92;101182.97;5109209;28;20032;-86
2023/05/18 11:51:11;;;;;;;5.82;2.08;;;;;;;18.05;38.88;101175.19;5114493;28;20116;-85
2023/05/18 11:53:39;;;;;;;6.35;1.80;;;;;;;18.50;36.44;101178.44;5112278;28;20044;-85
2023/05/18 11:56:18;;;;;;;6.85;1.92;;;;;;;18.60;36.19;101173.34;5111400;28;20092;-87
2023/05/18 11:59:29;;;;;;;5.90;1.90;;;;;;;18.43;36.52;101174.44;5106129;28;20464;-86
2023/05/18 12:02:10;;;;;;;7.60;2.00;;;;;;;18.23;36.72;101162.41;5103979;28;20048;-86
2023/05/18 12:04:43;;;;;;;7.38;2.58;;;;;;;18.40;36.91;101177.34;5099847;28;20044;-83
2023/05/18 12:07:29;;;;;;;6.78;2.17;;;;;;;18.31;36.36;101161.88;5108027;28;20150;-86
2023/05/18 12:10:00;;;;;;;8.70;2.00;;;;;;;18.44;36.67;101160.94;5106233;28;20067;-86
2023/05/18 12:12:40;;;;;;;5.55;2.00;;;;;;;18.59;37.20;101169.78;5104309;28;20040;-86
2023/05/18 12:15:14;;;;;;;5.25;1.85;;;;;;;18.52;37.37;101168.47;5104091;28;20046;-85